Time;durP1;ratioP1;P1;durP2;ratioP2;P2;SDS_P1;SDS_P2;PMS_P1;PMS_P2;Temp;Humidity;BMP_temperature;BMP_pressure;BME280_temperature;BME280_humidity;BME280_pressure;Samples;Min_cycle;Max_cycle;Signal;HPM_P1;HPM_P2
2023/05/25 00:01:09;;;;;;;9.68;5.70;;;;;;;9.63;100.00;101584.91;5018129;28;20041;-82
2023/05/25 00:03:39;;;;;;;8.63;4.72;;;;;;;9.56;100.00;101583.16;5039150;28;20484;-83
2023/05/25 00:06:06;;;;;;;8.32;5.03;;;;;;;9.57;100.00;101587.53;5032394;28;20048;-82
2023/05/25 00:08:32;;;;;;;9.23;5.22;;;;;;;9.52;100.00;101587.56;5046565;28;20500;-83
2023/05/25 00:10:59;;;;;;;10.10;5.47;;;;;;;9.53;100.00;101586.69;5044272;28;20405;-81
2023/05/25 00:13:26;;;;;;;12.77;5.85;;;;;;;9.46;100.00;101584.94;5032642;28;20518;-82
2023/05/25 00:15:53;;;;;;;10.40;5.32;;;;;;;9.48;100.00;101577.88;5026282;28;20053;-82
2023/05/25 00:18:20;;;;;;;9.45;5.93;;;;;;;9.51;100.00;101587.56;5046678;28;20120;-82
2023/05/25 00:20:47;;;;;;;8.00;4.85;;;;;;;9.40;100.00;101586.69;5046776;28;20168;-81
2023/05/25 00:23:14;;;;;;;10.15;5.40;;;;;;;9.30;100.00;101577.91;5020482;28;20059;-83
2023/05/25 00:25:41;;;;;;;18.48;7.18;;;;;;;9.36;100.00;101584.94;5049110;28;20560;-82
2023/05/25 00:28:10;;;;;;;11.07;5.43;;;;;;;9.25;100.00;101588.47;5056958;28;20036;-83
2023/05/25 00:30:36;;;;;;;9.23;5.72;;;;;;;9.11;100.00;101581.44;5050333;28;20374;-81
2023/05/25 00:33:04;;;;;;;9.98;5.00;;;;;;;9.06;100.00;101584.06;5049893;28;20051;-82
2023/05/25 00:35:30;;;;;;;10.38;5.60;;;;;;;8.97;100.00;101581.41;5039537;28;20548;-83
2023/05/25 00:37:57;;;;;;;7.72;4.93;;;;;;;9.05;100.00;101578.78;5028256;28;20068;-84
2023/05/25 00:40:24;;;;;;;11.65;6.15;;;;;;;9.03;100.00;101574.41;5048682;28;20071;-83
2023/05/25 00:42:51;;;;;;;11.00;5.40;;;;;;;8.90;100.00;101574.38;5042497;28;20409;-82
2023/05/25 01:57:56;;;;;;;12.03;5.50;;;;;;;7.40;100.00;101588.63;5119794;22;20100;-84
2023/05/25 02:00:30;;;;;;;9.47;5.07;;;;;;;7.38;100.00;101593.88;5063464;28;20039;-82
2023/05/25 02:02:57;;;;;;;7.90;5.40;;;;;;;7.40;100.00;101580.72;5069274;28;20040;-83
2023/05/25 02:05:24;;;;;;;8.53;6.17;;;;;;;7.43;100.00;101583.41;5060484;28;20116;-83
2023/05/25 02:07:51;;;;;;;9.03;5.37;;;;;;;7.36;100.00;101594.75;5058178;28;20049;-83
2023/05/25 02:10:18;;;;;;;10.67;5.20;;;;;;;7.28;100.00;101592.94;5057087;28;20432;-84
2023/05/25 02:12:45;;;;;;;9.53;5.97;;;;;;;7.26;100.00;101597.28;5061283;28;20604;-84
2023/05/25 02:15:12;;;;;;;11.00;6.13;;;;;;;7.19;100.00;101587.59;5068967;28;20304;-84
2023/05/25 02:17:40;;;;;;;9.33;5.40;;;;;;;7.19;100.00;101589.34;5070665;28;20074;-83
2023/05/25 02:20:08;;;;;;;9.10;5.70;;;;;;;7.07;100.00;101592.75;5068098;28;20039;-84
2023/05/25 02:22:36;;;;;;;7.80;5.37;;;;;;;7.07;100.00;101603.28;5050296;28;20059;-83
2023/05/25 02:25:04;;;;;;;7.93;5.10;;;;;;;7.05;100.00;101597.97;5075045;28;20044;-83
2023/05/25 02:27:31;;;;;;;9.20;5.20;;;;;;;7.03;100.00;101607.59;5054952;28;20093;-84
2023/05/25 02:29:58;;;;;;;11.47;6.00;;;;;;;6.89;100.00;101596.06;5072491;28;20037;-83
2023/05/25 02:32:24;;;;;;;9.90;5.53;;;;;;;6.78;100.00;101595.97;5063803;28;20043;-84
2023/05/25 02:34:51;;;;;;;9.83;5.20;;;;;;;6.77;100.00;101596.84;5066200;28;20047;-82
2023/05/25 02:37:18;;;;;;;9.83;5.50;;;;;;;6.83;100.00;101600.41;5062428;28;20058;-84
2023/05/25 02:39:45;;;;;;;10.00;5.77;;;;;;;6.84;100.00;101602.16;5078217;28;20397;-84
2023/05/25 02:42:13;;;;;;;11.93;6.83;;;;;;;6.72;100.00;101590.66;5052825;28;20048;-84
2023/05/25 02:44:41;;;;;;;21.63;7.30;;;;;;;6.66;100.00;101593.25;5056700;28;20048;-83
2023/05/25 02:47:08;;;;;;;21.53;7.80;;;;;;;6.60;100.00;101590.53;5055479;28;20123;-82
2023/05/25 02:49:35;;;;;;;17.27;7.20;;;;;;;6.64;100.00;101588.81;5055057;28;20040;-84
2023/05/25 02:52:02;;;;;;;16.27;5.83;;;;;;;6.62;100.00;101587.94;5057142;28;20386;-84
2023/05/25 02:54:28;;;;;;;12.40;5.73;;;;;;;6.49;100.00;101590.44;5064164;28;20476;-83
2023/05/25 02:56:55;;;;;;;11.80;5.77;;;;;;;6.62;100.00;101585.31;5061396;28;20043;-84
2023/05/25 02:59:24;;;;;;;15.40;6.93;;;;;;;6.56;100.00;101586.16;5079884;28;20035;-82
2023/05/25 03:01:51;;;;;;;19.03;6.63;;;;;;;6.44;100.00;101588.63;5074908;28;20560;-84
2023/05/25 03:04:18;;;;;;;22.00;7.27;;;;;;;6.40;100.00;101594.72;5090816;28;20569;-84
2023/05/25 03:06:45;;;;;;;15.37;6.50;;;;;;;6.48;100.00;101600.94;5052637;28;20385;-82
2023/05/25 03:09:12;;;;;;;12.37;5.80;;;;;;;6.40;100.00;101598.22;5046988;28;20070;-83
2023/05/25 03:11:38;;;;;;;11.10;6.60;;;;;;;6.40;100.00;101603.47;5069586;28;20488;-84
2023/05/25 03:14:05;;;;;;;11.33;6.87;;;;;;;6.52;100.00;101599.22;5043221;28;20048;-83
2023/05/25 03:16:35;;;;;;;13.07;6.43;;;;;;;6.49;100.00;101610.56;5046171;28;20048;-83
2023/05/25 03:19:04;;;;;;;11.57;5.97;;;;;;;6.46;100.00;101613.13;5041284;28;20044;-83
2023/05/25 03:21:31;;;;;;;14.70;6.17;;;;;;;6.25;100.00;101619.00;5068457;28;20051;-83
2023/05/25 03:23:58;;;;;;;12.10;5.90;;;;;;;6.30;100.00;101609.44;5054013;28;20123;-84
2023/05/25 03:26:25;;;;;;;9.03;4.97;;;;;;;6.33;100.00;101612.13;5061998;28;20435;-82
2023/05/25 03:28:52;;;;;;;12.37;5.83;;;;;;;6.38;100.00;101612.16;5057544;28;20063;-83
2023/05/25 03:31:18;;;;;;;11.33;6.17;;;;;;;6.42;100.00;101624.47;5071466;28;20059;-83
2023/05/25 03:33:45;;;;;;;9.43;5.00;;;;;;;6.39;100.00;101622.69;5066235;28;20050;-82
2023/05/25 03:36:12;;;;;;;10.50;5.20;;;;;;;6.40;100.00;101616.59;5049706;28;20572;-84
2023/05/25 03:38:41;;;;;;;9.90;5.40;;;;;;;6.47;100.00;101620.13;5056279;28;20067;-82
2023/05/25 03:41:07;;;;;;;8.07;5.40;;;;;;;6.48;100.00;101624.56;5066850;28;20047;-81
2023/05/25 03:43:34;;;;;;;10.50;5.70;;;;;;;6.48;100.00;101621.94;5054310;28;20032;-83
2023/05/25 03:46:01;;;;;;;11.37;6.20;;;;;;;6.39;100.00;101622.69;5081277;28;20058;-80
2023/05/25 03:48:28;;;;;;;11.27;5.87;;;;;;;6.47;100.00;101626.31;5049134;28;20051;-82
2023/05/25 03:50:54;;;;;;;9.07;5.53;;;;;;;6.54;100.00;101632.47;5088702;28;20028;-82
2023/05/25 03:53:21;;;;;;;9.03;5.70;;;;;;;6.53;100.00;101638.59;5063392;28;20548;-82
2023/05/25 03:55:50;;;;;;;11.60;5.87;;;;;;;6.47;100.00;101628.94;5066772;28;20540;-81
2023/05/25 03:58:17;;;;;;;8.30;6.03;;;;;;;6.49;100.00;101631.56;5070884;28;20040;-83
2023/05/25 04:00:44;;;;;;;10.40;5.30;;;;;;;6.55;100.00;101631.59;5062436;28;20036;-83
2023/05/25 04:03:11;;;;;;;8.93;5.43;;;;;;;6.57;100.00;101632.53;5033599;28;20068;-82
2023/05/25 04:05:38;;;;;;;13.00;6.20;;;;;;;6.60;100.00;101639.56;5048902;28;20045;-82
2023/05/25 04:08:07;;;;;;;8.97;5.80;;;;;;;6.51;100.00;101639.44;5042380;28;20413;-83
2023/05/25 04:10:34;;;;;;;9.30;5.83;;;;;;;6.64;100.00;101646.59;5068360;28;20054;-82
2023/05/25 04:13:00;;;;;;;8.63;5.97;;;;;;;6.63;100.00;101644.81;5065874;28;20042;-82
2023/05/25 04:15:27;;;;;;;9.80;5.93;;;;;;;6.70;100.00;101652.78;5050790;28;20078;-82
2023/05/25 04:17:54;;;;;;;10.17;5.40;;;;;;;6.73;100.00;101652.84;5065915;28;20060;-83
2023/05/25 04:20:24;;;;;;;10.20;5.43;;;;;;;6.70;100.00;101652.78;5074071;28;20050;-83
2023/05/25 04:23:02;;;;;;;9.77;5.83;;;;;;;6.73;100.00;101647.59;5057851;28;20040;-83
2023/05/25 04:25:30;;;;;;;10.10;5.50;;;;;;;6.81;100.00;101642.44;5089930;28;20452;-82
2023/05/25 04:27:57;;;;;;;11.63;6.07;;;;;;;6.87;100.00;101655.59;5049852;28;20199;-82
2023/05/25 04:30:24;;;;;;;39.23;8.80;;;;;;;6.86;100.00;101652.97;5058741;28;20040;-83
2023/05/25 04:32:51;;;;;;;20.33;6.60;;;;;;;6.94;100.00;101644.31;5074051;28;20040;-82
2023/05/25 04:35:19;;;;;;;18.13;8.50;;;;;;;7.07;100.00;101650.56;5076257;28;20071;-82
2023/05/25 04:37:47;;;;;;;24.13;8.23;;;;;;;7.20;100.00;101649.81;5073643;28;20043;-82
2023/05/25 04:40:14;;;;;;;38.57;10.07;;;;;;;7.18;100.00;101654.16;5061898;28;20040;-82
2023/05/25 04:42:40;;;;;;;37.27;8.43;;;;;;;7.11;100.00;101639.22;5049950;28;20041;-81
2023/05/25 04:45:09;;;;;;;21.37;7.90;;;;;;;7.22;100.00;101642.81;5046630;28;20073;-82
2023/05/25 04:47:36;;;;;;;18.70;6.73;;;;;;;7.22;100.00;101644.56;5065939;28;20353;-83
2023/05/25 04:50:03;;;;;;;24.30;6.50;;;;;;;7.29;100.00;101646.38;5057594;28;20107;-82
2023/05/25 04:52:31;;;;;;;13.23;6.23;;;;;;;7.43;100.00;101647.38;5070116;28;20453;-82
2023/05/25 04:54:58;;;;;;;11.47;5.70;;;;;;;7.57;100.00;101643.13;5058095;28;20040;-82
2023/05/25 04:57:26;;;;;;;9.63;5.80;;;;;;;7.64;100.00;101644.03;5049215;28;20501;-82
2023/05/25 04:59:53;;;;;;;7.73;5.83;;;;;;;7.71;100.00;101645.84;5059559;28;20040;-82
2023/05/25 05:02:20;;;;;;;8.40;5.53;;;;;;;7.88;100.00;101643.31;5048655;28;20340;-82
2023/05/25 05:04:47;;;;;;;11.77;5.87;;;;;;;8.20;100.00;101646.13;5043998;28;20089;-81
2023/05/25 05:07:13;;;;;;;9.80;5.83;;;;;;;8.94;100.00;101632.38;5068878;28;20040;-82
2023/05/25 05:09:40;;;;;;;7.70;5.60;;;;;;;9.16;100.00;101633.25;5053053;28;20481;-81
2023/05/25 05:12:07;;;;;;;7.78;5.75;;;;;;;9.09;100.00;101639.44;5084359;28;20035;-82
2023/05/25 05:14:37;;;;;;;11.20;6.32;;;;;;;9.11;100.00;101637.69;5078983;28;20690;-81
2023/05/25 05:17:04;;;;;;;11.38;6.00;;;;;;;9.14;100.00;101637.66;5100626;28;20039;-83
2023/05/25 05:19:31;;;;;;;13.30;6.90;;;;;;;9.12;100.00;101639.44;5063391;28;20047;-81
2023/05/25 05:21:58;;;;;;;10.32;5.57;;;;;;;9.13;100.00;101648.22;5055855;28;20041;-82
2023/05/25 05:24:26;;;;;;;9.98;7.13;;;;;;;9.43;100.00;101650.00;5085829;28;20032;-82
2023/05/25 05:26:52;;;;;;;13.57;5.95;;;;;;;10.19;100.00;101651.66;5052415;28;20515;-82
2023/05/25 05:29:25;;;;;;;16.88;5.78;;;;;;;10.88;100.00;101639.03;5060233;28;20408;-83
2023/05/25 05:31:53;;;;;;;11.63;5.07;;;;;;;11.45;100.00;101653.59;5071543;28;20119;-83
2023/05/25 05:34:20;;;;;;;9.63;4.85;;;;;;;11.42;100.00;101655.38;5086977;28;20648;-81
2023/05/25 05:36:47;;;;;;;10.73;5.40;;;;;;;11.56;100.00;101650.88;5077479;28;20036;-83
2023/05/25 05:39:23;;;;;;;9.63;5.40;;;;;;;12.55;100.00;101652.47;5065491;28;20040;-82
2023/05/25 05:41:50;;;;;;;9.52;5.35;;;;;;;14.50;100.00;101644.84;5039511;28;20044;-83
2023/05/25 05:44:17;;;;;;;8.15;4.70;;;;;;;15.70;87.50;101646.47;5045237;28;20075;-82
2023/05/25 05:46:44;;;;;;;9.25;5.13;;;;;;;16.95;78.61;101645.56;5054939;28;20040;-82
2023/05/25 05:49:11;;;;;;;7.80;4.90;;;;;;;17.41;71.46;101650.34;5075142;28;20043;-82
2023/05/25 05:51:38;;;;;;;7.47;4.35;;;;;;;18.49;69.01;101642.94;5078100;28;20063;-82
2023/05/25 05:54:05;;;;;;;7.03;4.47;;;;;;;19.31;63.17;101646.00;5055298;28;20050;-82
2023/05/25 05:56:31;;;;;;;7.43;4.57;;;;;;;19.37;61.46;101656.47;5071053;28;20115;-82
2023/05/25 05:58:58;;;;;;;6.57;4.80;;;;;;;19.66;60.20;101648.13;5075789;28;20039;-83
2023/05/25 06:01:25;;;;;;;9.00;5.45;;;;;;;19.76;55.53;101645.94;5049437;28;20040;-83
2023/05/25 06:03:53;;;;;;;13.20;5.25;;;;;;;19.82;55.22;101653.69;5055089;28;20069;-83
2023/05/25 06:06:20;;;;;;;13.63;6.47;;;;;;;19.28;56.94;101657.72;5062538;28;20044;-83
2023/05/25 06:08:47;;;;;;;7.20;5.00;;;;;;;19.40;58.92;101656.34;5077144;28;20131;-83
2023/05/25 06:11:13;;;;;;;8.85;4.95;;;;;;;19.32;60.33;101658.47;5090875;28;20035;-83
2023/05/25 06:13:40;;;;;;;9.95;4.78;;;;;;;19.21;61.28;101666.09;5070607;28;20329;-83
2023/05/25 06:16:07;;;;;;;9.43;5.55;;;;;;;18.74;61.55;101663.44;5063588;28;20046;-83
2023/05/25 06:18:34;;;;;;;8.38;5.50;;;;;;;18.73;63.75;101669.75;5052423;28;20092;-83
2023/05/25 06:21:01;;;;;;;8.52;4.93;;;;;;;18.74;61.82;101664.31;5073692;28;20042;-84
2023/05/25 06:23:27;;;;;;;9.23;4.97;;;;;;;18.80;62.65;101657.88;5061892;28;20071;-84
2023/05/25 06:25:54;;;;;;;9.38;5.10;;;;;;;18.83;61.51;101661.31;5050045;28;20044;-83
2023/05/25 06:28:21;;;;;;;7.03;4.32;;;;;;;18.74;59.24;101660.78;5068625;28;20062;-83
2023/05/25 06:30:48;;;;;;;11.95;5.05;;;;;;;18.98;60.98;101667.84;5053841;28;20089;-83
2023/05/25 06:33:14;;;;;;;9.40;4.88;;;;;;;18.97;60.91;101671.47;5072094;28;20044;-83
2023/05/25 06:35:41;;;;;;;13.20;5.38;;;;;;;18.98;60.85;101672.34;5057616;28;20071;-84
2023/05/25 06:38:10;;;;;;;8.98;4.85;;;;;;;18.88;61.35;101670.97;5068843;28;20036;-84
2023/05/25 06:40:36;;;;;;;10.23;4.90;;;;;;;18.95;60.32;101672.47;5055369;28;20123;-83
2023/05/25 06:43:03;;;;;;;9.50;4.25;;;;;;;19.16;61.93;101665.38;5059513;28;20046;-84
2023/05/25 06:45:30;;;;;;;6.97;4.03;;;;;;;19.37;61.24;101665.41;5053459;28;20072;-83
2023/05/25 06:47:56;;;;;;;10.68;5.35;;;;;;;19.57;61.42;101669.06;5065370;28;20040;-83
2023/05/25 06:50:23;;;;;;;16.52;6.03;;;;;;;19.64;58.93;101660.72;5076620;28;20040;-84
2023/05/25 06:52:50;;;;;;;7.72;4.82;;;;;;;19.65;56.40;101670.50;5059180;28;20050;-84
2023/05/25 06:55:17;;;;;;;7.28;4.50;;;;;;;19.51;58.52;101664.84;5053647;28;20063;-84
2023/05/25 06:57:43;;;;;;;7.32;4.65;;;;;;;19.50;56.85;101664.88;5068478;28;20126;-84
2023/05/25 07:00:11;;;;;;;7.60;4.32;;;;;;;19.65;57.27;101657.09;5061476;28;20502;-82
2023/05/25 07:02:38;;;;;;;8.23;4.47;;;;;;;19.74;57.00;101652.28;5059052;28;20044;-84
2023/05/25 07:05:05;;;;;;;6.40;4.57;;;;;;;19.84;55.50;101651.84;5077168;28;20047;-83
2023/05/25 07:07:32;;;;;;;7.00;4.10;;;;;;;19.81;55.53;101656.44;5082651;28;20044;-84
2023/05/25 07:10:00;;;;;;;9.50;4.68;;;;;;;20.10;55.47;101661.44;5085664;28;20087;-83
2023/05/25 07:12:27;;;;;;;8.35;4.35;;;;;;;20.15;52.85;101654.03;5075964;28;20035;-85
2023/05/25 07:14:54;;;;;;;7.22;3.92;;;;;;;20.27;52.39;101654.44;5054057;28;20344;-84
2023/05/25 07:17:21;;;;;;;7.25;3.47;;;;;;;20.29;51.76;101656.09;5079650;28;20096;-84
2023/05/25 07:19:48;;;;;;;7.60;4.13;;;;;;;20.42;50.98;101657.28;5080698;28;20055;-84
2023/05/25 07:22:17;;;;;;;10.23;4.03;;;;;;;20.55;51.86;101656.75;5070483;28;20043;-84
2023/05/25 07:24:45;;;;;;;7.75;4.70;;;;;;;20.54;51.80;101658.56;5069850;28;20563;-82
2023/05/25 07:27:15;;;;;;;5.03;3.15;;;;;;;20.64;51.77;101659.88;5071214;28;20124;-84
2023/05/25 07:29:42;;;;;;;5.13;3.55;;;;;;;20.80;50.25;101666.28;5066633;28;20040;-85
2023/05/25 07:32:08;;;;;;;7.15;3.53;;;;;;;20.46;49.41;101669.66;5064015;28;20032;-82
2023/05/25 07:34:35;;;;;;;13.52;3.92;;;;;;;20.62;50.87;101667.16;5060552;28;20039;-83
2023/05/25 07:37:02;;;;;;;6.03;3.83;;;;;;;20.63;50.03;101665.34;5055123;28;20139;-83
2023/05/25 07:39:29;;;;;;;6.97;3.78;;;;;;;20.74;49.27;101669.25;5044678;28;20511;-82
2023/05/25 07:41:55;;;;;;;5.60;2.90;;;;;;;20.72;48.73;101670.28;5056224;28;20411;-85
2023/05/25 07:44:22;;;;;;;6.30;3.28;;;;;;;20.93;49.87;101673.75;5089847;28;20032;-84
2023/05/25 07:46:49;;;;;;;9.95;3.53;;;;;;;20.64;49.15;101676.00;5031139;28;20236;-85
2023/05/25 07:49:15;;;;;;;5.40;3.33;;;;;;;20.29;51.99;101682.94;5093581;28;20063;-84
2023/05/25 07:51:43;;;;;;;8.43;3.75;;;;;;;20.38;52.10;101677.16;5070975;28;20052;-84
2023/05/25 07:54:10;;;;;;;5.55;3.25;;;;;;;20.30;51.63;101675.75;5073936;28;20130;-85
2023/05/25 07:56:37;;;;;;;8.80;4.13;;;;;;;19.89;52.32;101684.69;5066930;28;20567;-83
2023/05/25 07:59:05;;;;;;;7.10;3.38;;;;;;;19.68;53.87;101675.75;5074746;28;20050;-84
2023/05/25 08:01:31;;;;;;;9.80;3.40;;;;;;;19.64;55.98;101687.53;5063285;28;20095;-83
2023/05/25 08:03:58;;;;;;;6.95;4.40;;;;;;;19.92;54.25;101686.34;5053050;28;20040;-84
2023/05/25 08:06:25;;;;;;;6.95;3.75;;;;;;;19.66;56.60;101696.38;5068708;28;20126;-80
2023/05/25 08:08:52;;;;;;;10.80;4.10;;;;;;;20.10;56.58;101682.03;5062253;28;20036;-82
2023/05/25 08:11:23;;;;;;;7.90;4.00;;;;;;;19.96;55.86;101696.03;5051636;28;20124;-83
2023/05/25 08:13:50;;;;;;;9.13;3.78;;;;;;;19.68;57.39;101694.53;5060598;28;20047;-81
2023/05/25 08:16:17;;;;;;;8.05;4.50;;;;;;;19.90;57.89;101694.47;5046030;28;20064;-82
2023/05/25 08:18:45;;;;;;;9.57;4.20;;;;;;;19.85;57.34;101695.63;5075239;28;20051;-83
2023/05/25 08:21:12;;;;;;;8.13;4.45;;;;;;;19.60;57.03;101690.41;5064824;28;20032;-83
2023/05/25 08:23:41;;;;;;;6.07;4.07;;;;;;;19.66;57.35;101699.06;5062727;28;20089;-81
2023/05/25 08:26:09;;;;;;;7.22;4.45;;;;;;;19.70;56.50;101690.91;5050034;28;20455;-81
2023/05/25 08:28:56;;;;;;;8.65;4.20;;;;;;;19.56;58.90;101694.09;5060022;28;20460;-82
2023/05/25 08:31:22;;;;;;;8.63;4.55;;;;;;;18.98;58.47;101694.63;5049837;28;20036;-82
2023/05/25 08:33:49;;;;;;;6.35;3.90;;;;;;;19.05;58.61;101689.91;5061602;28;20059;-81
2023/05/25 08:36:16;;;;;;;60.30;10.15;;;;;;;19.44;61.32;101683.91;5090162;28;20042;-80
2023/05/25 08:38:43;;;;;;;8.98;4.43;;;;;;;19.43;57.99;101688.41;5062000;28;20076;-82
2023/05/25 08:41:10;;;;;;;7.43;5.05;;;;;;;19.48;57.79;101691.75;5071133;28;20135;-81
2023/05/25 08:43:37;;;;;;;6.00;3.97;;;;;;;19.43;57.44;101696.44;5054649;28;20036;-81
2023/05/25 08:46:06;;;;;;;6.40;3.90;;;;;;;19.37;58.09;101696.69;5046949;28;20079;-82
2023/05/25 08:48:35;;;;;;;7.07;4.03;;;;;;;19.28;60.23;101700.59;5091041;28;20036;-81
2023/05/25 08:51:09;;;;;;;7.30;4.00;;;;;;;19.46;58.91;101690.06;5061195;28;20043;-81
2023/05/25 08:53:39;;;;;;;8.02;4.22;;;;;;;19.92;55.36;101699.75;5071516;28;20035;-82
2023/05/25 08:56:18;;;;;;;9.00;4.32;;;;;;;20.47;56.55;101692.00;5045943;28;1013788;-81
2023/05/25 08:58:52;;;;;;;6.18;3.90;;;;;;;20.35;54.44;101708.63;5063427;28;20074;-82
2023/05/25 09:01:21;;;;;;;9.88;4.03;;;;;;;20.25;55.15;101705.47;5075082;28;20032;-81
2023/05/25 09:03:49;;;;;;;7.68;4.22;;;;;;;19.87;54.71;101717.88;5070707;28;20406;-81
2023/05/25 09:06:16;;;;;;;54.63;9.80;;;;;;;19.74;57.26;101719.31;5055851;28;20126;-83
2023/05/25 09:08:43;;;;;;;13.13;5.28;;;;;;;19.56;57.77;101719.13;5042271;28;20104;-82
2023/05/25 09:11:10;;;;;;;7.53;3.90;;;;;;;19.35;57.09;101715.50;5056218;28;20045;-83
2023/05/25 09:13:42;;;;;;;10.15;4.05;;;;;;;18.91;58.86;101719.91;5058522;28;20559;-82
2023/05/25 09:16:09;;;;;;;8.15;4.47;;;;;;;19.45;57.89;101718.69;5072630;28;20067;-82
2023/05/25 09:18:36;;;;;;;6.95;3.58;;;;;;;20.00;55.22;101720.88;5050287;28;20041;-82
2023/05/25 09:21:03;;;;;;;6.22;4.13;;;;;;;20.36;52.95;101715.75;5054588;28;20131;-82
2023/05/25 09:23:31;;;;;;;5.15;3.60;;;;;;;20.75;49.04;101711.28;5062268;28;20459;-80
2023/05/25 09:25:57;;;;;;;5.82;3.13;;;;;;;21.19;47.92;101718.19;5054947;28;20064;-83
2023/05/25 09:28:24;;;;;;;6.38;3.22;;;;;;;21.69;48.06;101713.03;5080051;28;20071;-82
2023/05/25 09:30:53;;;;;;;5.95;4.30;;;;;;;21.99;45.13;101710.63;5054314;28;20037;-81
2023/05/25 09:33:20;;;;;;;7.05;3.10;;;;;;;22.34;43.07;101700.72;5075700;28;20130;-82
2023/05/25 09:35:47;;;;;;;6.55;3.65;;;;;;;22.61;43.27;101702.88;5077329;27;20587;-81
2023/05/25 09:38:14;;;;;;;33.60;6.45;;;;;;;22.73;43.10;101703.09;5054101;28;20050;-82
2023/05/25 09:40:42;;;;;;;5.40;3.13;;;;;;;22.47;43.21;101695.56;5078073;28;20032;-81
2023/05/25 09:43:11;;;;;;;277.88;35.55;;;;;;;22.67;42.78;101702.56;5073557;28;20063;-83
2023/05/25 09:45:47;;;;;;;8.15;3.97;;;;;;;22.74;42.59;101699.47;5065788;28;20130;-83
2023/05/25 09:48:15;;;;;;;6.18;3.80;;;;;;;22.93;43.32;101698.47;5071558;28;20565;-84
2023/05/25 09:50:41;;;;;;;4.97;3.45;;;;;;;23.17;43.16;101696.22;5079704;28;20032;-81
2023/05/25 09:53:09;;;;;;;5.13;4.07;;;;;;;22.86;42.55;101697.06;5095339;28;20039;-82
2023/05/25 09:55:37;;;;;;;6.63;3.60;;;;;;;22.59;44.35;101708.38;5061940;28;20665;-82
2023/05/25 09:58:21;;;;;;;5.60;3.58;;;;;;;22.47;44.29;101709.03;5073663;28;20118;-82
2023/05/25 10:00:48;;;;;;;5.68;3.50;;;;;;;22.35;42.53;101704.28;5053160;28;20131;-83
2023/05/25 10:03:14;;;;;;;6.20;3.22;;;;;;;22.48;42.86;101700.88;5057052;28;20047;-82
2023/05/25 10:05:41;;;;;;;7.97;3.78;;;;;;;22.69;42.62;101698.81;5043398;28;20048;-82
2023/05/25 10:08:09;;;;;;;4.20;3.13;;;;;;;22.40;43.41;101703.09;5056209;28;20050;-83
2023/05/25 10:10:36;;;;;;;50.95;8.73;;;;;;;22.65;42.59;101710.75;5058072;28;20500;-83
2023/05/25 10:13:04;;;;;;;6.07;3.75;;;;;;;22.69;42.24;101714.13;5055716;28;20036;-83
2023/05/25 10:15:31;;;;;;;5.72;3.38;;;;;;;22.76;42.87;101710.16;5054703;28;20036;-83
2023/05/25 10:17:59;;;;;;;6.28;3.75;;;;;;;22.84;42.32;101705.22;5050164;28;20036;-81
2023/05/25 10:20:26;;;;;;;7.65;4.25;;;;;;;22.99;43.39;101714.31;5050557;28;20040;-82
2023/05/25 10:23:04;;;;;;;5.07;3.35;;;;;;;22.98;42.10;101709.88;5062184;28;20042;-82
2023/05/25 10:25:37;;;;;;;;;;;;;;;22.61;43.37;101708.28;5060372;28;20048;-83
2023/05/25 10:28:15;;;;;;;7.00;3.80;;;;;;;22.29;42.83;101710.91;5089648;28;20011;-82
2023/05/25 10:30:42;;;;;;;6.55;3.42;;;;;;;22.63;43.28;101706.41;5061957;28;20051;-80
2023/05/25 10:33:09;;;;;;;3.65;2.88;;;;;;;22.66;42.86;101703.53;5051515;28;20623;-83
2023/05/25 10:35:38;;;;;;;5.88;3.40;;;;;;;21.92;43.39;101715.44;5065940;28;20400;-81
2023/05/25 10:38:30;;;;;;;5.15;3.42;;;;;;;22.11;44.64;101706.44;5070660;28;20045;-84
2023/05/25 10:40:58;;;;;;;4.30;3.70;;;;;;;22.37;45.03;101703.28;5071641;28;20040;-82
2023/05/25 10:43:25;;;;;;;5.13;4.13;;;;;;;21.75;45.51;101715.44;5056836;28;20138;-83
2023/05/25 10:45:52;;;;;;;11.73;4.60;;;;;;;21.51;46.83;101719.34;5068635;28;20037;-80
2023/05/25 10:48:21;;;;;;;7.38;3.88;;;;;;;21.08;47.72;101716.00;5072144;28;20461;-81
2023/05/25 10:50:49;;;;;;;5.43;3.42;;;;;;;21.16;48.61;101710.28;5056020;28;20048;-81
2023/05/25 10:53:16;;;;;;;6.88;4.22;;;;;;;21.33;48.12;101699.59;5076430;28;20573;-81
2023/05/25 10:55:51;;;;;;;27.90;21.67;;;;;;;21.72;46.74;101691.38;5051399;28;20058;-82
2023/05/25 10:58:20;;;;;;;8.48;7.68;;;;;;;22.01;46.09;101694.41;5073548;28;20127;-80
2023/05/25 11:01:08;;;;;;;7.75;4.47;;;;;;;22.38;46.74;101705.03;5057034;28;20047;-82
2023/05/25 11:03:47;;;;;;;5.60;3.72;;;;;;;22.37;47.49;101705.97;5084138;28;20047;-81
2023/05/25 11:06:15;;;;;;;7.00;4.38;;;;;;;21.88;46.46;101708.50;5071283;28;20126;-82
2023/05/25 11:08:58;;;;;;;19.73;5.43;;;;;;;21.83;47.25;101701.59;5064807;28;20503;-79
2023/05/25 11:11:58;;;;;;;7.47;4.97;;;;;;;21.75;47.56;101699.28;5051832;28;20420;-78
2023/05/25 11:14:37;;;;;;;6.65;3.63;;;;;;;21.52;48.55;101711.19;5079021;28;20127;-81
2023/05/25 11:17:14;;;;;;;6.00;4.07;;;;;;;21.25;48.97;101708.00;5071038;28;20123;-83
2023/05/25 11:19:53;;;;;;;5.72;3.85;;;;;;;21.07;50.13;101706.22;5059740;28;20043;-83
2023/05/25 11:22:30;;;;;;;5.63;3.63;;;;;;;21.00;52.10;101712.81;5055639;28;20039;-83
2023/05/25 11:24:58;;;;;;;91.95;15.07;;;;;;;20.94;51.50;101711.31;5085228;28;20086;-81
2023/05/25 11:27:30;;;;;;;62.35;9.20;;;;;;;20.63;50.32;101710.97;5050237;28;20044;-83
2023/05/25 11:29:57;;;;;;;16.10;4.63;;;;;;;20.57;51.81;101713.94;5049857;28;20254;-82
2023/05/25 11:32:25;;;;;;;10.07;4.50;;;;;;;20.21;51.78;101715.47;5088226;28;20477;-83
2023/05/25 11:34:54;;;;;;;8.13;4.10;;;;;;;20.18;52.70;101715.63;5054139;28;20048;-83
2023/05/25 11:37:23;;;;;;;31.63;7.18;;;;;;;20.18;52.77;101712.06;5068190;28;20101;-82
2023/05/25 11:39:51;;;;;;;9.35;4.47;;;;;;;20.40;54.21;101717.34;5054553;28;20101;-83
2023/05/25 11:42:19;;;;;;;6.75;3.90;;;;;;;20.37;52.09;101710.31;5051050;28;20028;-83
2023/05/25 11:44:46;;;;;;;6.22;4.40;;;;;;;20.89;51.30;101707.94;5083531;28;20105;-84
2023/05/25 11:47:17;;;;;;;21.25;5.55;;;;;;;21.31;49.66;101713.13;5051094;28;20040;-80
2023/05/25 11:49:45;;;;;;;18.73;5.30;;;;;;;21.29;47.64;101704.28;5066351;28;20071;-85
2023/05/25 11:52:18;;;;;;;8.43;4.10;;;;;;;21.22;48.61;101697.41;5059995;28;20063;-83
2023/05/25 11:54:45;;;;;;;5.85;3.70;;;;;;;21.11;48.91;101702.44;5073101;28;20075;-84
2023/05/25 11:57:24;;;;;;;6.63;4.47;;;;;;;20.63;49.28;101702.91;5062748;28;20476;-84
2023/05/25 12:00:05;;;;;;;6.93;4.50;;;;;;;20.65;52.58;101707.28;5056595;28;20561;-84
2023/05/25 12:02:37;;;;;;;7.82;3.80;;;;;;;20.59;51.60;101696.81;5056144;28;20103;-85
2023/05/25 12:05:06;;;;;;;8.07;4.72;;;;;;;20.41;51.13;101695.78;5061551;28;20071;-85
2023/05/25 12:07:45;;;;;;;6.40;4.70;;;;;;;20.41;52.60;101695.78;5059005;28;20048;-83
2023/05/25 12:10:15;;;;;;;7.53;4.30;;;;;;;20.43;54.23;101698.41;5065811;28;20116;-84
2023/05/25 12:12:42;;;;;;;7.15;4.25;;;;;;;20.30;53.47;101699.91;5060403;28;20131;-83
2023/05/25 12:15:10;;;;;;;103.80;14.05;;;;;;;20.17;52.29;101694.19;5068450;28;20516;-84
2023/05/25 12:17:43;;;;;;;18.70;5.70;;;;;;;20.10;52.58;101698.97;5059450;28;20428;-83
2023/05/25 12:20:11;;;;;;;7.00;4.47;;;;;;;19.67;52.41;101699.91;5073066;28;20048;-82
2023/05/25 12:22:39;;;;;;;9.63;4.70;;;;;;;19.88;52.44;101701.72;5072165;28;20440;-84
2023/05/25 12:25:10;;;;;;;5.35;3.95;;;;;;;19.94;51.56;101705.94;5058717;28;20051;-83
2023/05/25 12:27:36;;;;;;;6.75;4.00;;;;;;;19.90;50.75;101702.50;5056244;28;20055;-83
2023/05/25 12:30:06;;;;;;;13.68;4.65;;;;;;;19.85;51.28;101703.66;5063986;28;20040;-83
2023/05/25 12:33:03;;;;;;;9.15;3.95;;;;;;;19.82;51.20;101699.28;5046087;28;20134;-83
2023/05/25 12:35:49;;;;;;;7.10;3.83;;;;;;;19.91;51.57;101692.66;5069960;28;20044;-83
2023/05/25 12:38:17;;;;;;;6.20;4.25;;;;;;;20.30;50.82;101705.28;5044340;28;20041;-83
2023/05/25 12:41:05;;;;;;;447.90;57.78;;;;;;;20.77;50.19;101695.97;5070667;28;20483;-83